createdAt,value
2023-03-29T00:07:36.587Z,101620
2023-03-29T00:12:36.695Z,101590
2023-03-29T00:17:36.657Z,101590
2023-03-29T00:42:36.593Z,101600
2023-03-29T00:47:36.612Z,101590
2023-03-29T00:52:36.619Z,101580
2023-03-29T01:02:36.715Z,101560
2023-03-29T01:07:36.609Z,101550
2023-03-29T01:12:36.626Z,101540
2023-03-29T01:17:36.676Z,101540
2023-03-29T01:22:36.620Z,101530
2023-03-29T01:32:36.662Z,101510
2023-03-29T01:37:36.662Z,101500
2023-03-29T01:47:36.642Z,101500
2023-03-29T01:52:36.603Z,101500
2023-03-29T01:57:36.651Z,101490
2023-03-29T02:17:36.660Z,101480
2023-03-29T02:37:36.650Z,101470
2023-03-29T02:47:36.674Z,101470
2023-03-29T02:52:36.646Z,101460
2023-03-29T02:57:36.644Z,101460
2023-03-29T03:12:36.657Z,101460
2023-03-29T03:27:36.683Z,101430
2023-03-29T03:42:36.632Z,101410
2023-03-29T03:47:36.684Z,101400
2023-03-29T03:57:36.637Z,101390
2023-03-29T04:02:36.788Z,101400
2023-03-29T04:07:36.854Z,101400
2023-03-29T04:12:36.856Z,101390
2023-03-29T04:47:36.744Z,101390
2023-03-29T04:57:36.693Z,101380
2023-03-29T05:07:36.684Z,101370
2023-03-29T05:12:36.710Z,101380
2023-03-29T05:22:36.678Z,101360
2023-03-29T05:42:36.666Z,101360
2023-03-29T05:47:36.690Z,101370
2023-03-29T05:52:36.702Z,101370
2023-03-29T05:57:36.699Z,101380
2023-03-29T06:07:36.693Z,101380
2023-03-29T06:12:36.699Z,101370
2023-03-29T06:22:36.691Z,101370
2023-03-29T06:27:36.688Z,101370
2023-03-29T06:32:36.730Z,101370
2023-03-29T06:37:36.719Z,101370
2023-03-29T06:42:36.713Z,101370
2023-03-29T06:47:36.746Z,101370
2023-03-29T06:57:36.702Z,101380
2023-03-29T07:02:36.953Z,101380
2023-03-29T07:07:36.800Z,101390
2023-03-29T07:12:36.704Z,101380
2023-03-29T07:17:36.735Z,101390
2023-03-29T07:22:36.694Z,101390
2023-03-29T07:27:36.697Z,101390
2023-03-29T07:32:36.767Z,101390
2023-03-29T07:37:36.689Z,101390
2023-03-29T07:52:36.701Z,101380
2023-03-29T07:57:36.737Z,101390
2023-03-29T08:02:36.742Z,101390
2023-03-29T08:07:36.718Z,101390
2023-03-29T08:12:36.735Z,101390
2023-03-29T08:17:36.767Z,101390
2023-03-29T08:22:36.720Z,101390
2023-03-29T08:27:36.714Z,101390
2023-03-29T08:32:36.788Z,101390
2023-03-29T08:37:36.758Z,101380
2023-03-29T08:42:36.822Z,101370
2023-03-29T08:47:36.775Z,101380
2023-03-29T08:52:36.734Z,101370
2023-03-29T09:02:36.810Z,101360
2023-03-29T09:07:36.717Z,101360
2023-03-29T09:12:37.899Z,101370
2023-03-29T09:17:36.779Z,101370
2023-03-29T09:22:36.721Z,101360
2023-03-29T09:27:36.749Z,101360
2023-03-29T09:32:36.771Z,101380
2023-03-29T09:37:36.748Z,101360
2023-03-29T09:42:36.744Z,101370
2023-03-29T09:47:36.827Z,101360
2023-03-29T09:52:36.754Z,101350
2023-03-29T09:57:38.154Z,101350
2023-03-29T10:02:36.818Z,101350
2023-03-29T10:07:36.746Z,101350
2023-03-29T10:12:36.766Z,101350
2023-03-29T10:17:36.784Z,101350
2023-03-29T10:22:36.741Z,101360
2023-03-29T10:27:36.749Z,101350
2023-03-29T10:32:36.824Z,101340
2023-03-29T10:37:36.776Z,101340
2023-03-29T10:42:36.776Z,101340
2023-03-29T10:47:38.097Z,101330
2023-03-29T10:52:36.756Z,101330
2023-03-29T10:57:36.962Z,101330
2023-03-29T11:02:36.884Z,101340
2023-03-29T11:07:36.783Z,101340
2023-03-29T11:12:36.775Z,101350
2023-03-29T11:17:36.829Z,101340
2023-03-29T11:22:36.766Z,101320
2023-03-29T11:27:36.776Z,101320
2023-03-29T11:32:36.818Z,101310
2023-03-29T11:37:36.807Z,101290
2023-03-29T11:42:36.788Z,101300
2023-03-29T11:47:36.828Z,101300
2023-03-29T11:52:36.768Z,101290
2023-03-29T11:57:36.801Z,101280
2023-03-29T12:02:36.870Z,101290
2023-03-29T12:07:36.789Z,101290
2023-03-29T12:12:36.786Z,101300
2023-03-29T12:17:36.845Z,101290
2023-03-29T12:22:36.786Z,101300
2023-03-29T12:27:36.787Z,101290
2023-03-29T12:32:36.849Z,101290
2023-03-29T12:37:36.799Z,101280
2023-03-29T12:42:36.813Z,101280
2023-03-29T12:47:36.799Z,101280
2023-03-29T12:52:36.820Z,101280
2023-03-29T12:57:36.814Z,101280
2023-03-29T13:02:37.093Z,101290
2023-03-29T13:07:36.802Z,101280
2023-03-29T13:12:36.809Z,101270
2023-03-29T13:17:36.822Z,101250
2023-03-29T13:22:36.822Z,101250
2023-03-29T13:27:36.806Z,101250
2023-03-29T13:32:36.851Z,101230
2023-03-29T13:42:36.848Z,101210
2023-03-29T13:47:36.919Z,101190
2023-03-29T13:52:36.808Z,101190
2023-03-29T13:57:36.815Z,101190
2023-03-29T14:02:37.025Z,101180
2023-03-29T14:07:36.833Z,101170
2023-03-29T14:12:38.297Z,101150
2023-03-29T14:17:36.940Z,101160
2023-03-29T14:22:36.849Z,101170
2023-03-29T14:27:37.875Z,101160
2023-03-29T14:32:36.846Z,101160
2023-03-29T14:37:36.834Z,101150
2023-03-29T14:42:36.895Z,101130
2023-03-29T14:47:37.019Z,101120
2023-03-29T14:52:36.845Z,101120
2023-03-29T14:57:36.904Z,101120
2023-03-29T15:02:36.961Z,101110
2023-03-29T15:07:36.892Z,101090
2023-03-29T15:12:36.849Z,101090
2023-03-29T15:17:50.329Z,101070
2023-03-29T15:22:36.850Z,101060
2023-03-29T15:27:36.875Z,101060
2023-03-29T15:32:36.919Z,101050
2023-03-29T15:42:36.847Z,101040
2023-03-29T15:47:36.897Z,101030
2023-03-29T15:52:36.876Z,101020
2023-03-29T15:57:36.938Z,101020
2023-03-29T16:02:36.982Z,101020
2023-03-29T16:07:36.873Z,101010
2023-03-29T16:12:36.858Z,101010
2023-03-29T16:27:36.870Z,100970
2023-03-29T16:32:36.922Z,100960
2023-03-29T16:37:36.889Z,100960
2023-03-29T16:47:36.921Z,100960
2023-03-29T16:57:36.862Z,100950
2023-03-29T17:07:36.894Z,100940
2023-03-29T17:12:36.880Z,100930
2023-03-29T17:17:36.910Z,100930
2023-03-29T17:22:36.892Z,100900
2023-03-29T17:32:36.962Z,100900
2023-03-29T17:42:36.923Z,100880
2023-03-29T17:47:36.923Z,100880
2023-03-29T18:02:37.029Z,100850
2023-03-29T18:12:36.908Z,100850
2023-03-29T18:27:36.912Z,100860
2023-03-29T18:32:36.988Z,100860
2023-03-29T18:47:36.933Z,100850
2023-03-29T18:52:36.926Z,100850
2023-03-29T19:02:37.009Z,100830
2023-03-29T19:07:36.972Z,100830
2023-03-29T19:12:36.942Z,100830
2023-03-29T19:17:36.949Z,100830
2023-03-29T19:22:36.940Z,100820
2023-03-29T19:27:36.928Z,100820
2023-03-29T19:47:36.975Z,100800
2023-03-29T19:52:36.946Z,100800
2023-03-29T19:57:36.932Z,100800
2023-03-29T20:02:36.968Z,100790
2023-03-29T20:12:36.939Z,100770
2023-03-29T20:17:36.952Z,100740
2023-03-29T20:22:36.967Z,100740
2023-03-29T20:27:36.943Z,100740
2023-03-29T20:42:36.939Z,100710
2023-03-29T20:47:36.991Z,100710
2023-03-29T20:52:36.961Z,100700
2023-03-29T20:57:37.105Z,100680
2023-03-29T21:07:36.962Z,100670
2023-03-29T21:12:36.954Z,100670
2023-03-29T21:22:36.976Z,100650
2023-03-29T21:27:36.983Z,100650
2023-03-29T21:37:36.989Z,100640
2023-03-29T21:42:36.972Z,100640
2023-03-29T21:57:36.964Z,100610
2023-03-29T22:22:36.995Z,100580
2023-03-29T22:32:37.039Z,100570
2023-03-29T22:37:37.001Z,100570
2023-03-29T22:42:36.988Z,100570
2023-03-29T22:47:37.046Z,100560
2023-03-29T22:52:36.995Z,100560
2023-03-29T22:57:36.980Z,100550
2023-03-29T23:02:37.011Z,100550
2023-03-29T23:07:37.007Z,100550
2023-03-29T23:37:37.010Z,100510
2023-03-29T23:47:37.063Z,100500
2023-03-29T23:57:37.021Z,100480
